Time;durP1;ratioP1;P1;durP2;ratioP2;P2;SDS_P1;SDS_P2;PMS_P1;PMS_P2;Temp;Humidity;BMP_temperature;BMP_pressure;BME280_temperature;BME280_humidity;BME280_pressure;Samples;Min_cycle;Max_cycle;Signal;HPM_P1;HPM_P2
2021/11/07 00:00:22;;;;;;;7.67;5.10;;;8.80;99.90;;;;;;5256716;28;20233;-69
2021/11/07 00:03:03;;;;;;;9.87;5.30;;;8.80;99.90;;;;;;5214133;28;20197;-69
2021/11/07 00:05:45;;;;;;;10.37;5.33;;;8.80;99.90;;;;;;5232079;28;20232;-69
2021/11/07 00:08:41;;;;;;;11.17;5.90;;;8.80;99.90;;;;;;5216116;28;20720;-67
2021/11/07 00:13:56;;;;;;;9.90;5.63;;;8.80;99.90;;;;;;5231812;28;20209;-69
2021/11/07 00:16:33;;;;;;;11.00;6.07;;;8.90;99.90;;;;;;5231407;28;20228;-71
2021/11/07 00:24:26;;;;;;;10.37;5.43;;;8.90;99.90;;;;;;5273382;28;20530;-69
2021/11/07 00:27:23;;;;;;;7.87;5.53;;;8.90;99.90;;;;;;5255294;28;20232;-68
2021/11/07 00:38:06;;;;;;;9.60;5.80;;;8.90;99.90;;;;;;5251680;28;20224;-68
2021/11/07 00:43:25;;;;;;;9.93;5.30;;;8.90;99.90;;;;;;5231163;28;20209;-67
2021/11/07 00:46:22;;;;;;;13.23;5.60;;;8.90;99.90;;;;;;5238954;28;20565;-67
2021/11/07 00:48:59;;;;;;;9.27;5.27;;;8.90;99.90;;;;;;5271656;28;20318;-67
2021/11/07 00:51:38;;;;;;;10.40;5.47;;;8.90;99.90;;;;;;5255339;28;20235;-65
2021/11/07 00:56:57;;;;;;;8.17;5.23;;;8.80;99.90;;;;;;5264260;28;20563;-67
2021/11/07 01:02:24;;;;;;;9.10;5.23;;;8.80;99.90;;;;;;5251340;28;20224;-68
2021/11/07 01:05:03;;;;;;;9.40;5.17;;;8.70;99.90;;;;;;5251351;28;20216;-65
2021/11/07 01:07:35;;;;;;;10.50;5.67;;;8.70;99.90;;;;;;5251011;28;20235;-66
2021/11/07 01:10:10;;;;;;;8.97;5.50;;;8.70;99.90;;;;;;5250922;28;20500;-69
2021/11/07 01:12:42;;;;;;;9.27;5.60;;;8.70;99.90;;;;;;5250723;28;20204;-67
2021/11/07 01:15:17;;;;;;;8.47;5.10;;;8.60;99.90;;;;;;5251818;28;20228;-65
2021/11/07 01:17:49;;;;;;;8.93;5.63;;;8.60;99.90;;;;;;5233463;28;20200;-68
2021/11/07 01:20:30;;;;;;;9.73;5.40;;;8.60;99.90;;;;;;5249897;28;20205;-67
2021/11/07 01:25:49;;;;;;;9.10;5.73;;;8.60;99.90;;;;;;5251194;28;20201;-64
2021/11/07 01:28:25;;;;;;;9.23;5.40;;;8.60;99.90;;;;;;5250830;28;20279;-68
2021/11/07 01:31:00;;;;;;;10.03;5.50;;;8.50;99.90;;;;;;5250866;28;20220;-68
2021/11/07 01:33:32;;;;;;;10.83;5.63;;;8.50;99.90;;;;;;5266655;28;20231;-69
2021/11/07 01:42:00;;;;;;;7.97;4.77;;;8.50;99.90;;;;;;5263380;28;20281;-68
2021/11/07 01:44:48;;;;;;;7.40;5.07;;;8.40;99.90;;;;;;5259026;28;20232;-66
2021/11/07 01:47:21;;;;;;;6.87;4.77;;;8.40;99.90;;;;;;5269218;28;20196;-69
2021/11/07 01:49:53;;;;;;;7.50;4.70;;;8.40;99.90;;;;;;5270502;28;20565;-69
2021/11/07 01:52:28;;;;;;;9.23;5.03;;;8.40;99.90;;;;;;5271622;28;20545;-70
2021/11/07 01:55:04;;;;;;;9.10;4.87;;;8.40;99.90;;;;;;5271550;28;20219;-69
2021/11/07 01:57:37;;;;;;;7.47;4.73;;;8.30;99.90;;;;;;5269369;28;20204;-68
2021/11/07 02:00:20;;;;;;;9.93;4.93;;;8.30;99.90;;;;;;5270609;28;20256;-67
2021/11/07 02:02:55;;;;;;;8.73;4.87;;;8.30;99.90;;;;;;5269877;28;20536;-67
2021/11/07 02:05:27;;;;;;;6.57;4.93;;;8.30;99.90;;;;;;5252124;28;20242;-68
2021/11/07 02:07:59;;;;;;;6.90;4.10;;;8.30;99.90;;;;;;5270058;28;20204;-67
2021/11/07 02:10:34;;;;;;;7.30;4.73;;;8.20;99.90;;;;;;5252101;28;20232;-68
2021/11/07 02:13:08;;;;;;;11.40;5.20;;;8.30;99.90;;;;;;5271090;28;20253;-67
2021/11/07 02:15:43;;;;;;;8.53;5.27;;;8.20;99.90;;;;;;5253162;28;20239;-68
2021/11/07 02:18:19;;;;;;;7.07;4.83;;;8.20;99.90;;;;;;5270821;28;20203;-68
2021/11/07 02:20:51;;;;;;;7.50;4.77;;;8.20;99.90;;;;;;5271051;28;20229;-67
2021/11/07 02:23:25;;;;;;;10.43;5.00;;;8.20;99.90;;;;;;5270792;28;20223;-68
2021/11/07 02:26:02;;;;;;;12.33;5.30;;;8.20;99.90;;;;;;5253058;28;20264;-68
2021/11/07 02:28:46;;;;;;;10.00;5.27;;;8.10;99.90;;;;;;5232525;28;20309;-66
2021/11/07 02:31:23;;;;;;;8.40;5.10;;;8.10;99.90;;;;;;5172175;28;20270;-68
2021/11/07 02:33:58;;;;;;;7.47;4.80;;;8.10;99.90;;;;;;5165763;28;20196;-69
2021/11/07 02:36:30;;;;;;;8.57;5.30;;;8.10;99.90;;;;;;5165004;28;20234;-69
2021/11/07 02:39:03;;;;;;;8.37;5.73;;;8.10;99.90;;;;;;5165187;28;20207;-68
2021/11/07 02:41:35;;;;;;;8.43;5.63;;;8.00;99.90;;;;;;5164819;28;20242;-71
2021/11/07 02:44:09;;;;;;;7.50;4.80;;;8.00;99.90;;;;;;5164604;28;20222;-71
2021/11/07 02:46:44;;;;;;;7.73;5.00;;;8.00;99.90;;;;;;5164648;28;20234;-69
2021/11/07 02:49:19;;;;;;;7.87;4.93;;;7.90;99.90;;;;;;5163559;28;20211;-70
2021/11/07 02:51:54;;;;;;;9.60;5.10;;;7.90;99.90;;;;;;5225299;28;20227;-69
2021/11/07 02:54:26;;;;;;;10.40;5.30;;;7.90;99.90;;;;;;5148238;28;20203;-69
2021/11/07 02:57:01;;;;;;;8.73;5.30;;;7.90;99.90;;;;;;5199886;28;20223;-70
2021/11/07 02:59:41;;;;;;;7.40;4.73;;;7.90;99.90;;;;;;5231216;28;20214;-69
2021/11/07 03:02:14;;;;;;;9.27;5.57;;;7.80;99.90;;;;;;5185555;28;20607;-70
2021/11/07 03:04:46;;;;;;;9.77;5.83;;;7.80;99.90;;;;;;5216054;28;20212;-67
2021/11/07 03:07:19;;;;;;;9.83;5.20;;;7.80;99.90;;;;;;5164909;28;20231;-69
2021/11/07 03:09:54;;;;;;;8.90;5.77;;;7.80;99.90;;;;;;5166135;28;20215;-68
2021/11/07 03:12:27;;;;;;;8.13;5.20;;;7.80;99.90;;;;;;5165577;28;20238;-70
2021/11/07 03:14:59;;;;;;;6.93;5.03;;;7.80;99.90;;;;;;5164473;28;20214;-69
2021/11/07 03:17:31;;;;;;;11.37;5.37;;;7.80;99.90;;;;;;5210616;28;20220;-71
2021/11/07 03:20:06;;;;;;;7.17;5.40;;;7.80;99.90;;;;;;5155762;28;20199;-69
2021/11/07 03:22:39;;;;;;;8.27;5.43;;;7.80;99.90;;;;;;5231010;28;20235;-70
2021/11/07 03:25:11;;;;;;;12.20;6.00;;;7.70;99.90;;;;;;5164229;28;20215;-71
2021/11/07 03:27:46;;;;;;;7.23;5.20;;;7.80;99.90;;;;;;5230456;28;20227;-70
2021/11/07 03:33:33;;;;;;;16.07;5.33;;;7.70;99.90;;;;;;5249191;28;20252;-72
2021/11/07 03:36:07;;;;;;;9.07;5.53;;;7.70;99.90;;;;;;5249066;28;20199;-67
2021/11/07 03:38:41;;;;;;;8.53;5.67;;;7.70;99.90;;;;;;5248928;28;20197;-69
2021/11/07 03:41:16;;;;;;;12.03;5.50;;;7.70;99.90;;;;;;5249238;28;20523;-71
2021/11/07 03:43:48;;;;;;;9.00;5.50;;;7.70;99.90;;;;;;5248875;28;20224;-69
2021/11/07 03:46:20;;;;;;;10.27;5.73;;;7.70;99.90;;;;;;5249109;28;20213;-69
2021/11/07 03:48:52;;;;;;;8.67;5.47;;;7.70;99.90;;;;;;5233501;28;20228;-69
2021/11/07 03:51:27;;;;;;;11.77;6.30;;;7.70;99.90;;;;;;5249036;28;20231;-70
2021/11/07 03:54:05;;;;;;;12.27;6.77;;;7.60;99.90;;;;;;5222905;28;20216;-71
2021/11/07 03:56:37;;;;;;;11.20;6.07;;;7.70;99.90;;;;;;5248606;28;20207;-72
2021/11/07 03:59:10;;;;;;;9.57;5.57;;;7.70;99.90;;;;;;5231527;28;20236;-70
2021/11/07 04:01:44;;;;;;;13.60;6.53;;;7.70;99.90;;;;;;5242742;28;20691;-71
2021/11/07 04:04:17;;;;;;;8.80;5.63;;;7.70;99.90;;;;;;5248450;28;20232;-71
2021/11/07 04:06:50;;;;;;;9.50;6.47;;;7.70;99.90;;;;;;5233638;28;20216;-72
2021/11/07 04:09:24;;;;;;;11.53;6.20;;;7.70;99.90;;;;;;5245266;28;20538;-68
2021/11/07 04:12:00;;;;;;;8.53;5.70;;;7.70;99.90;;;;;;5238359;28;20213;-68
2021/11/07 04:14:33;;;;;;;8.73;5.67;;;7.70;99.90;;;;;;5235740;28;20246;-70
2021/11/07 04:17:07;;;;;;;8.33;5.70;;;7.70;99.90;;;;;;5230886;28;20229;-68
2021/11/07 04:19:41;;;;;;;8.93;5.93;;;7.70;99.90;;;;;;5248448;28;20221;-68
2021/11/07 04:22:14;;;;;;;11.23;6.00;;;7.70;99.90;;;;;;5241032;28;20271;-70
2021/11/07 04:24:47;;;;;;;9.97;6.77;;;7.70;99.90;;;;;;5252223;28;20590;-70
2021/11/07 04:27:19;;;;;;;13.50;6.07;;;7.70;99.90;;;;;;5251884;28;20247;-66
2021/11/07 04:29:51;;;;;;;9.90;6.53;;;7.70;99.90;;;;;;5229829;28;20256;-69
2021/11/07 04:32:23;;;;;;;13.00;6.07;;;7.60;99.90;;;;;;5250973;28;20236;-71
2021/11/07 04:35:01;;;;;;;9.03;6.30;;;7.60;99.90;;;;;;5252361;28;20686;-71
2021/11/07 04:37:34;;;;;;;11.83;6.33;;;7.70;99.90;;;;;;5254562;28;20617;-67
2021/11/07 04:40:08;;;;;;;9.63;6.70;;;7.70;99.90;;;;;;5252108;28;20217;-69
2021/11/07 04:42:42;;;;;;;13.73;7.33;;;7.70;99.90;;;;;;5252024;28;20213;-70
2021/11/07 04:45:14;;;;;;;10.90;6.73;;;7.60;99.90;;;;;;5252082;28;20227;-67
2021/11/07 04:47:47;;;;;;;9.40;6.87;;;7.60;99.90;;;;;;5251968;28;20546;-67
2021/11/07 04:50:22;;;;;;;13.00;6.60;;;7.60;99.90;;;;;;5251812;28;20255;-65
2021/11/07 04:52:55;;;;;;;9.03;6.17;;;7.60;99.90;;;;;;5251942;28;20228;-68
2021/11/07 04:55:29;;;;;;;12.93;6.53;;;7.60;99.90;;;;;;5234336;28;20659;-66
2021/11/07 04:58:02;;;;;;;11.50;6.87;;;7.60;99.90;;;;;;5250451;28;20200;-69
2021/11/07 05:00:37;;;;;;;9.20;6.60;;;7.60;99.90;;;;;;5251585;28;20565;-67
2021/11/07 05:03:11;;;;;;;11.30;7.33;;;7.60;99.90;;;;;;5235593;28;20545;-68
2021/11/07 05:05:43;;;;;;;13.77;7.20;;;7.60;99.90;;;;;;5251428;28;20228;-67
2021/11/07 05:08:15;;;;;;;11.90;7.17;;;7.60;99.90;;;;;;5251092;28;20655;-67
2021/11/07 05:10:50;;;;;;;11.40;6.83;;;7.60;99.90;;;;;;5250056;28;20232;-67
2021/11/07 05:13:22;;;;;;;12.70;7.67;;;7.60;99.90;;;;;;5251657;28;20495;-71
2021/11/07 05:15:56;;;;;;;10.03;7.03;;;7.60;99.90;;;;;;5251278;28;20236;-71
2021/11/07 05:18:30;;;;;;;14.17;7.90;;;7.60;99.90;;;;;;5251392;28;20193;-67
2021/11/07 05:21:02;;;;;;;12.07;7.80;;;7.60;99.90;;;;;;5251008;28;20225;-70
2021/11/07 05:23:34;;;;;;;10.00;7.27;;;7.60;99.90;;;;;;5251058;28;20559;-71
2021/11/07 05:26:06;;;;;;;11.80;7.07;;;7.60;99.90;;;;;;5250820;28;20574;-67
2021/11/07 05:28:38;;;;;;;12.10;7.63;;;7.60;99.90;;;;;;5225540;28;20231;-68
2021/11/07 05:31:11;;;;;;;11.43;7.43;;;7.60;99.90;;;;;;5166153;28;20534;-71
2021/11/07 05:33:43;;;;;;;10.63;8.00;;;7.60;99.90;;;;;;5165771;28;20517;-68
2021/11/07 05:36:16;;;;;;;11.77;7.40;;;7.60;99.90;;;;;;5165936;28;20301;-66
2021/11/07 05:38:48;;;;;;;12.13;8.33;;;7.60;99.90;;;;;;5166080;28;20223;-66
2021/11/07 05:41:20;;;;;;;12.33;7.77;;;7.60;99.90;;;;;;5165959;28;20730;-67
2021/11/07 05:43:52;;;;;;;13.17;7.90;;;7.60;99.90;;;;;;5165491;28;20207;-67
2021/11/07 05:46:24;;;;;;;13.50;8.87;;;7.60;99.90;;;;;;5215916;28;20238;-68
2021/11/07 05:48:56;;;;;;;13.50;8.83;;;7.50;99.90;;;;;;5233752;28;20207;-66
2021/11/07 05:51:28;;;;;;;14.37;9.07;;;7.50;99.90;;;;;;5165623;28;20255;-67
2021/11/07 05:54:04;;;;;;;11.83;8.43;;;7.50;99.90;;;;;;5165836;28;20207;-68
2021/11/07 05:56:36;;;;;;;16.27;9.77;;;7.50;99.90;;;;;;5165822;28;20227;-67
2021/11/07 05:59:08;;;;;;;17.37;10.33;;;7.50;99.90;;;;;;5232193;28;20200;-67
2021/11/07 06:01:43;;;;;;;15.90;9.57;;;7.50;99.90;;;;;;5165380;28;20238;-70
2021/11/07 06:04:15;;;;;;;13.47;9.30;;;7.50;99.90;;;;;;5239131;28;20203;-70
2021/11/07 06:06:49;;;;;;;17.03;9.50;;;7.50;99.90;;;;;;5165164;28;20235;-68
2021/11/07 06:09:21;;;;;;;16.23;9.83;;;7.50;99.90;;;;;;5165611;28;20591;-69
2021/11/07 06:11:55;;;;;;;16.80;10.07;;;7.50;99.90;;;;;;5242206;28;20227;-70
2021/11/07 06:14:28;;;;;;;16.40;10.50;;;7.40;99.90;;;;;;5230908;28;20274;-70
2021/11/07 06:17:01;;;;;;;16.50;10.30;;;7.40;99.90;;;;;;5231187;28;20746;-69
2021/11/07 06:19:35;;;;;;;15.63;9.90;;;7.40;99.90;;;;;;5216446;28;20187;-69
2021/11/07 06:22:07;;;;;;;15.80;9.37;;;7.40;99.90;;;;;;5164902;28;20223;-66
2021/11/07 06:24:40;;;;;;;16.47;9.50;;;7.40;99.90;;;;;;5232361;28;20611;-68
2021/11/07 06:27:12;;;;;;;14.93;9.87;;;7.40;99.90;;;;;;5231958;28;20227;-68
2021/11/07 06:29:46;;;;;;;22.20;10.90;;;7.40;99.90;;;;;;5231560;28;20236;-69
2021/11/07 06:32:23;;;;;;;15.03;9.83;;;7.40;99.90;;;;;;5164803;28;20235;-70
2021/11/07 06:34:55;;;;;;;17.50;9.50;;;7.40;99.90;;;;;;5230735;28;20184;-66
2021/11/07 06:37:27;;;;;;;17.70;10.57;;;7.40;99.90;;;;;;5232332;28;20305;-66
2021/11/07 06:40:01;;;;;;;15.00;9.90;;;7.40;99.90;;;;;;5216391;28;20184;-68
2021/11/07 06:42:33;;;;;;;17.90;9.83;;;7.40;99.90;;;;;;5165369;28;20208;-71
2021/11/07 06:45:06;;;;;;;19.43;10.87;;;7.40;99.90;;;;;;5165412;28;20204;-70
2021/11/07 06:47:40;;;;;;;20.93;11.13;;;7.40;99.90;;;;;;5165726;28;20204;-72
2021/11/07 06:50:13;;;;;;;19.00;11.30;;;7.30;99.90;;;;;;5232069;28;20237;-71
2021/11/07 06:52:46;;;;;;;18.67;10.70;;;7.30;99.90;;;;;;5231848;28;20215;-64
2021/11/07 06:55:18;;;;;;;17.53;10.43;;;7.30;99.90;;;;;;5164883;28;20206;-65
2021/11/07 06:57:51;;;;;;;15.93;9.80;;;7.30;99.90;;;;;;5164619;28;20196;-68
2021/11/07 07:00:27;;;;;;;17.37;10.87;;;7.30;99.90;;;;;;5165058;28;20286;-70
2021/11/07 07:03:00;;;;;;;16.50;10.50;;;7.30;99.90;;;;;;5164759;28;20524;-69
2021/11/07 07:05:33;;;;;;;20.37;11.10;;;7.30;99.90;;;;;;5164814;28;20255;-64
2021/11/07 07:08:12;;;;;;;18.37;10.57;;;7.40;99.90;;;;;;5230829;28;20203;-66
2021/11/07 07:10:54;;;;;;;17.13;11.30;;;7.40;99.90;;;;;;5227400;28;20646;-67
2021/11/07 07:13:34;;;;;;;18.60;10.40;;;7.40;99.90;;;;;;5164577;28;20221;-68
2021/11/07 07:16:18;;;;;;;16.53;10.77;;;7.40;99.90;;;;;;5164490;28;20192;-68
2021/11/07 07:19:01;;;;;;;16.40;9.83;;;7.40;99.90;;;;;;5164504;28;20224;-67
2021/11/07 07:21:49;;;;;;;14.87;9.57;;;7.40;99.90;;;;;;5238406;28;20191;-67
2021/11/07 07:35:35;;;;;;;14.70;9.87;;;7.40;99.90;;;;;;5167457;28;20199;-69
2021/11/07 07:38:09;;;;;;;15.63;9.57;;;7.50;99.90;;;;;;5228036;28;20199;-67
2021/11/07 07:40:42;;;;;;;15.23;9.53;;;7.50;99.90;;;;;;5234307;28;20242;-67
2021/11/07 07:43:14;;;;;;;15.80;9.27;;;7.50;99.90;;;;;;5230250;28;20211;-72
2021/11/07 07:45:46;;;;;;;15.20;9.70;;;7.50;99.90;;;;;;5230703;28;20662;-70
2021/11/07 07:48:20;;;;;;;16.93;9.87;;;7.50;99.90;;;;;;5221216;28;20212;-65
2021/11/07 07:50:52;;;;;;;14.43;9.60;;;7.40;99.90;;;;;;5164396;28;20541;-70
2021/11/07 07:53:24;;;;;;;17.67;9.03;;;7.40;99.90;;;;;;5164042;28;20228;-67
2021/11/07 07:55:57;;;;;;;16.03;9.93;;;7.40;99.90;;;;;;5165451;28;20234;-66
2021/11/07 07:58:31;;;;;;;15.70;8.90;;;7.40;99.90;;;;;;5167859;28;20227;-69
2021/11/07 08:01:04;;;;;;;17.00;9.23;;;7.40;99.90;;;;;;5167236;28;20230;-68
2021/11/07 08:03:37;;;;;;;15.40;9.27;;;7.40;99.90;;;;;;5167339;28;20231;-66
2021/11/07 08:06:09;;;;;;;14.33;9.00;;;7.40;99.90;;;;;;5241991;28;20255;-67
2021/11/07 08:08:43;;;;;;;17.20;9.07;;;7.40;99.90;;;;;;5167005;28;20204;-69
2021/11/07 08:11:19;;;;;;;14.77;8.67;;;7.40;99.90;;;;;;5166861;28;20239;-68
2021/11/07 08:13:53;;;;;;;12.37;8.40;;;7.40;99.90;;;;;;5244324;28;20224;-66
2021/11/07 08:16:26;;;;;;;15.57;8.70;;;7.40;99.90;;;;;;5166735;28;20228;-69
2021/11/07 08:18:59;;;;;;;12.30;7.60;;;7.40;99.90;;;;;;5234214;28;20215;-67
2021/11/07 08:21:37;;;;;;;15.27;8.93;;;7.40;99.90;;;;;;5166935;28;20228;-69
2021/11/07 08:24:12;;;;;;;13.30;8.97;;;7.40;99.90;;;;;;5242587;28;20504;-66
2021/11/07 08:26:47;;;;;;;13.23;8.20;;;7.40;99.90;;;;;;5166961;28;20569;-67
2021/11/07 08:29:22;;;;;;;14.07;9.20;;;7.40;99.90;;;;;;5231219;28;20223;-69
2021/11/07 08:31:58;;;;;;;12.90;8.93;;;7.40;99.90;;;;;;5167367;28;20537;-68
2021/11/07 08:34:32;;;;;;;14.13;8.47;;;7.40;99.90;;;;;;5233900;28;20199;-66
2021/11/07 08:37:09;;;;;;;12.93;8.13;;;7.40;99.90;;;;;;5166518;28;20658;-67
2021/11/07 08:39:49;;;;;;;13.70;8.57;;;7.40;99.90;;;;;;5167180;28;20482;-66
2021/11/07 08:42:38;;;;;;;12.77;8.37;;;7.50;99.90;;;;;;5166999;28;20227;-67
2021/11/07 09:08:22;;;;;;;11.17;6.40;;;7.30;99.90;;;;;;5182674;28;20283;-72
2021/11/07 09:10:57;;;;;;;11.33;6.27;;;7.30;99.90;;;;;;5165360;28;20211;-70
2021/11/07 09:13:30;;;;;;;8.27;5.57;;;7.20;99.90;;;;;;5165678;28;20621;-69
2021/11/07 09:16:03;;;;;;;8.10;5.40;;;7.20;99.90;;;;;;5168738;28;20204;-68
2021/11/07 09:18:36;;;;;;;8.97;5.93;;;7.20;99.90;;;;;;5235811;28;20273;-70
2021/11/07 09:21:23;;;;;;;11.20;5.77;;;7.20;99.90;;;;;;5167413;28;20208;-70
2021/11/07 09:23:58;;;;;;;8.90;6.07;;;7.20;99.90;;;;;;5239308;28;20247;-71
2021/11/07 09:26:34;;;;;;;8.33;5.10;;;7.30;99.90;;;;;;5233172;28;20219;-75
2021/11/07 09:29:19;;;;;;;7.77;5.00;;;7.30;99.90;;;;;;5233254;28;20674;-71
2021/11/07 09:34:56;;;;;;;8.40;5.33;;;7.30;99.90;;;;;;5166479;28;20474;-73
2021/11/07 09:39:59;;;;;;;9.03;5.63;;;7.30;99.90;;;;;;5232607;28;20384;-68
2021/11/07 09:45:19;;;;;;;8.73;5.60;;;7.30;99.90;;;;;;5166129;28;20317;-71
2021/11/07 09:47:57;;;;;;;10.03;5.17;;;7.20;99.90;;;;;;5166047;28;20187;-70
2021/11/07 09:50:29;;;;;;;10.00;6.40;;;7.30;99.90;;;;;;5166799;28;20211;-70
2021/11/07 09:53:03;;;;;;;9.57;5.87;;;7.30;99.90;;;;;;5233813;28;20623;-72
2021/11/07 09:55:35;;;;;;;8.63;5.53;;;7.40;99.90;;;;;;5233066;28;20266;-70
2021/11/07 09:58:10;;;;;;;8.60;5.30;;;7.50;99.90;;;;;;5231920;28;20632;-66
2021/11/07 10:00:58;;;;;;;6.77;4.77;;;7.70;99.90;;;;;;5165578;28;20207;-68
2021/11/07 10:03:32;;;;;;;6.77;4.40;;;7.70;99.90;;;;;;5231861;28;20235;-69
2021/11/07 10:06:06;;;;;;;6.97;4.90;;;7.70;99.90;;;;;;5165218;28;20203;-71
2021/11/07 10:08:43;;;;;;;7.47;4.63;;;7.70;99.90;;;;;;5165599;28;20549;-69
2021/11/07 10:11:15;;;;;;;8.17;4.63;;;7.70;99.90;;;;;;5232348;28;20191;-69
2021/11/07 10:14:16;;;;;;;6.50;3.60;;;7.70;99.90;;;;;;5231530;28;20248;-71
2021/11/07 10:16:51;;;;;;;6.37;3.90;;;7.70;99.90;;;;;;5165330;28;20196;-69
2021/11/07 10:22:03;;;;;;;5.43;4.00;;;7.70;99.90;;;;;;5245615;28;20218;-73
2021/11/07 10:24:38;;;;;;;7.17;4.00;;;7.70;99.90;;;;;;5165195;28;20239;-70
2021/11/07 10:27:13;;;;;;;5.00;3.97;;;7.70;99.90;;;;;;5165363;28;20473;-69
2021/11/07 10:29:49;;;;;;;5.10;3.50;;;7.70;99.90;;;;;;5231749;28;20658;-69
2021/11/07 10:32:29;;;;;;;5.00;3.60;;;7.70;99.90;;;;;;5165563;28;20217;-69
2021/11/07 10:41:25;;;;;;;5.17;3.20;;;7.80;99.90;;;;;;5165011;28;20234;-70
2021/11/07 10:52:50;;;;;;;4.63;3.10;;;7.80;99.90;;;;;;5165001;28;20539;-70
2021/11/07 10:55:26;;;;;;;3.40;2.83;;;7.70;99.90;;;;;;5164446;28;20231;-70
2021/11/07 10:58:01;;;;;;;4.20;2.90;;;7.70;99.90;;;;;;5231832;28;20289;-70
2021/11/07 11:00:36;;;;;;;5.07;3.20;;;7.70;99.90;;;;;;5164997;28;20238;-68
2021/11/07 11:03:16;;;;;;;6.53;3.67;;;7.70;99.90;;;;;;5231319;28;20199;-69
2021/11/07 11:06:13;;;;;;;6.03;3.40;;;7.60;99.90;;;;;;5165501;28;20227;-69
2021/11/07 11:14:34;;;;;;;4.50;2.83;;;7.70;99.90;;;;;;5165625;28;20219;-71
2021/11/07 11:17:23;;;;;;;4.83;3.30;;;7.70;99.90;;;;;;5165380;28;20575;-69
2021/11/07 11:20:32;;;;;;;5.50;3.23;;;7.80;99.90;;;;;;5164311;28;20199;-70
2021/11/07 11:23:21;;;;;;;6.07;3.43;;;7.80;99.90;;;;;;5164278;28;20316;-67
2021/11/07 11:26:24;;;;;;;5.07;3.20;;;7.90;99.90;;;;;;5164348;28;20242;-71
2021/11/07 11:32:04;;;;;;;5.87;3.80;;;8.10;99.90;;;;;;5167284;28;20249;-72
2021/11/07 11:34:42;;;;;;;4.33;3.00;;;8.10;99.90;;;;;;5168323;28;20510;-69
2021/11/07 11:37:19;;;;;;;5.50;3.30;;;8.20;99.90;;;;;;5168023;28;20234;-69
2021/11/07 11:40:03;;;;;;;4.23;3.07;;;8.30;99.90;;;;;;5167458;28;20199;-68
2021/11/07 11:43:00;;;;;;;4.70;2.90;;;8.40;99.90;;;;;;5234828;28;20214;-70
2021/11/07 11:45:37;;;;;;;4.70;3.07;;;8.50;99.90;;;;;;5236880;28;20215;-68
2021/11/07 11:48:45;;;;;;;4.40;2.87;;;8.60;99.90;;;;;;5167773;28;20191;-69
2021/11/07 11:57:19;;;;;;;4.83;3.00;;;8.60;99.90;;;;;;5168199;28;20547;-68
2021/11/07 12:00:34;;;;;;;5.80;3.23;;;8.60;99.90;;;;;;5235083;28;20550;-68
2021/11/07 12:08:14;;;;;;;6.37;3.57;;;8.70;99.90;;;;;;5167260;28;20210;-73
2021/11/07 12:13:49;;;;;;;6.30;4.03;;;8.70;99.90;;;;;;5167524;28;20223;-67
2021/11/07 12:16:52;;;;;;;6.87;4.53;;;8.80;99.90;;;;;;5167326;28;20202;-70
2021/11/07 12:19:35;;;;;;;8.43;4.53;;;8.90;99.90;;;;;;5167291;28;20218;-70
2021/11/07 12:22:13;;;;;;;7.20;4.40;;;9.00;99.90;;;;;;5233861;28;20255;-67
2021/11/07 12:24:49;;;;;;;6.93;4.03;;;9.10;99.90;;;;;;5166963;28;20196;-71
2021/11/07 12:27:52;;;;;;;6.33;3.60;;;9.10;99.90;;;;;;5166444;28;20237;-67
2021/11/07 12:30:29;;;;;;;7.77;3.70;;;9.10;99.90;;;;;;5250410;28;20231;-71
2021/11/07 12:33:23;;;;;;;8.13;3.00;;;9.20;99.90;;;;;;5234068;28;20550;-72
2021/11/07 12:42:19;;;;;;;5.53;3.20;;;9.40;99.90;;;;;;5184370;28;20208;-72
2021/11/07 12:45:46;;;;;;;4.53;2.97;;;9.30;99.90;;;;;;5183826;28;20212;-73
2021/11/07 12:48:42;;;;;;;5.93;3.03;;;9.20;99.90;;;;;;5172674;28;20563;-73
2021/11/07 12:51:39;;;;;;;4.83;2.60;;;9.10;99.90;;;;;;5259532;28;20217;-69
2021/11/07 12:54:19;;;;;;;4.33;2.53;;;9.10;99.90;;;;;;5187101;28;20234;-70
2021/11/07 12:57:17;;;;;;;6.10;2.77;;;9.20;99.90;;;;;;5187640;28;20253;-72
2021/11/07 12:59:54;;;;;;;6.50;2.80;;;9.30;99.90;;;;;;5254459;28;20244;-72
2021/11/07 13:02:29;;;;;;;5.83;3.37;;;9.30;99.90;;;;;;5186765;28;20243;-68
2021/11/07 13:05:23;;;;;;;5.27;2.60;;;9.30;99.90;;;;;;5186998;28;20215;-69
2021/11/07 13:08:05;;;;;;;7.73;2.93;;;9.30;99.90;;;;;;5254401;28;20210;-70
2021/11/07 13:18:54;;;;;;;9.50;3.30;;;9.00;99.90;;;;;;5225670;28;20231;-65
2021/11/07 13:24:20;;;;;;;7.23;3.10;;;8.90;99.90;;;;;;5166364;28;20239;-70
2021/11/07 13:27:07;;;;;;;5.13;3.13;;;8.90;99.90;;;;;;5165578;28;20204;-69
2021/11/07 13:32:31;;;;;;;5.40;2.37;;;9.00;99.90;;;;;;5250439;28;20211;-69
2021/11/07 13:35:11;;;;;;;3.13;2.30;;;8.90;99.90;;;;;;5217988;28;20683;-74
2021/11/07 13:38:05;;;;;;;6.00;2.90;;;8.90;99.90;;;;;;5233895;28;20290;-66
2021/11/07 13:40:39;;;;;;;6.20;2.50;;;8.90;99.90;;;;;;5251798;28;20666;-66
2021/11/07 13:43:17;;;;;;;5.63;2.90;;;8.90;99.90;;;;;;5249930;28;20232;-63
2021/11/07 13:45:52;;;;;;;6.23;3.03;;;8.90;99.90;;;;;;5258950;28;20229;-68
2021/11/07 13:48:30;;;;;;;5.40;2.63;;;8.80;99.90;;;;;;5240343;28;20192;-64
2021/11/07 13:51:03;;;;;;;5.93;3.53;;;8.70;99.90;;;;;;5251235;28;20232;-65
2021/11/07 13:53:40;;;;;;;7.00;3.80;;;8.60;99.90;;;;;;5233007;28;20229;-66
2021/11/07 13:56:15;;;;;;;6.43;2.93;;;8.60;99.90;;;;;;5233800;28;20228;-65
2021/11/07 13:58:47;;;;;;;7.50;4.18;;;8.50;99.90;;;;;;5250460;28;20439;-68
2021/11/07 14:01:22;;;;;;;9.60;4.38;;;8.50;99.90;;;;;;5252071;28;20416;-68
2021/11/07 14:03:56;;;;;;;9.77;4.43;;;8.40;99.90;;;;;;5233031;28;20806;-67
2021/11/07 14:06:38;;;;;;;6.53;3.37;;;8.40;99.90;;;;;;5249549;28;20232;-69
2021/11/07 14:09:12;;;;;;;6.37;3.20;;;8.40;99.90;;;;;;5234640;28;20211;-67
2021/11/07 14:11:48;;;;;;;6.90;2.83;;;8.40;99.90;;;;;;5251034;28;20228;-71
2021/11/07 14:14:22;;;;;;;6.40;3.10;;;8.30;99.90;;;;;;5250305;28;20224;-68
2021/11/07 14:16:59;;;;;;;7.07;3.17;;;8.30;99.90;;;;;;5233966;28;20216;-64
2021/11/07 14:19:31;;;;;;;6.77;3.20;;;8.30;99.90;;;;;;5250870;28;20199;-65
2021/11/07 14:22:14;;;;;;;6.87;3.60;;;8.30;99.90;;;;;;5250075;28;20221;-70
2021/11/07 14:24:48;;;;;;;9.30;2.90;;;8.40;99.90;;;;;;5232601;28;20204;-65
2021/11/07 14:27:32;;;;;;;7.07;3.40;;;8.30;99.90;;;;;;5232249;28;20291;-65
2021/11/07 14:30:10;;;;;;;7.50;3.23;;;8.30;99.90;;;;;;5241928;28;20232;-71
2021/11/07 14:32:44;;;;;;;8.27;3.37;;;8.20;99.90;;;;;;5249416;28;20240;-64
2021/11/07 14:35:22;;;;;;;8.87;3.60;;;8.20;99.90;;;;;;5249467;28;20216;-64
2021/11/07 14:38:09;;;;;;;7.40;3.87;;;8.10;99.90;;;;;;5232301;28;20221;-64
2021/11/07 14:40:59;;;;;;;7.83;3.17;;;8.10;99.90;;;;;;5255349;28;20195;-63
2021/11/07 14:44:27;;;;;;;10.17;3.30;;;8.10;99.90;;;;;;5249471;28;20220;-70
2021/11/07 14:54:49;;;;;;;8.50;3.17;;;8.00;99.90;;;;;;5251198;28;20225;-70
2021/11/07 15:00:55;;;;;;;8.03;3.17;;;8.00;99.90;;;;;;5250139;28;20300;-70
2021/11/07 15:03:28;;;;;;;6.80;3.30;;;8.00;99.90;;;;;;5249161;28;20226;-65
2021/11/07 15:06:55;;;;;;;12.90;3.73;;;8.00;99.90;;;;;;5248757;28;20238;-69
2021/11/07 15:12:40;;;;;;;7.53;2.67;;;8.00;99.90;;;;;;5161014;28;20650;-68
2021/11/07 15:15:27;;;;;;;13.03;3.33;;;8.00;99.90;;;;;;5136025;28;20298;-65
2021/11/07 15:22:01;;;;;;;11.93;3.90;;;7.90;99.90;;;;;;5185159;28;20206;-67
2021/11/07 15:24:43;;;;;;;9.33;3.13;;;7.90;99.90;;;;;;5169360;28;20230;-68
2021/11/07 15:27:22;;;;;;;9.90;3.47;;;7.90;99.90;;;;;;5216936;28;20279;-66
2021/11/07 15:32:37;;;;;;;7.33;2.60;;;7.80;99.90;;;;;;5163778;28;20298;-68
2021/11/07 15:35:24;;;;;;;11.33;3.10;;;7.80;99.90;;;;;;5164103;28;20239;-66
2021/11/07 15:38:13;;;;;;;6.87;2.60;;;7.70;99.90;;;;;;5182352;28;20195;-66
2021/11/07 15:40:50;;;;;;;7.13;2.37;;;7.70;99.90;;;;;;5176039;28;20227;-66
2021/11/07 15:43:27;;;;;;;8.20;2.90;;;7.60;99.90;;;;;;5165464;28;20278;-65
2021/11/07 15:46:13;;;;;;;7.20;2.57;;;7.60;99.90;;;;;;5144423;28;20243;-71
2021/11/07 15:48:48;;;;;;;7.20;2.70;;;7.50;99.90;;;;;;5143848;28;20207;-70
2021/11/07 15:54:04;;;;;;;10.80;3.50;;;7.50;99.90;;;;;;5163812;28;20306;-66
2021/11/07 15:59:44;;;;;;;5.27;2.27;;;7.30;99.90;;;;;;5164131;28;20206;-68
2021/11/07 16:02:21;;;;;;;8.20;3.10;;;7.30;99.90;;;;;;5150074;28;20214;-71
2021/11/07 16:05:15;;;;;;;8.27;3.17;;;7.20;99.90;;;;;;5167741;28;20548;-66
2021/11/07 16:16:32;;;;;;;7.67;3.23;;;7.10;99.90;;;;;;5163148;28;20214;-66
2021/11/07 16:19:09;;;;;;;6.53;2.83;;;7.00;99.90;;;;;;5146967;28;20311;-68
2021/11/07 16:21:46;;;;;;;8.30;3.10;;;7.00;99.90;;;;;;5164670;28;20647;-69
2021/11/07 16:24:22;;;;;;;11.33;3.60;;;7.00;99.90;;;;;;5166920;28;20203;-72
2021/11/07 16:26:56;;;;;;;10.30;2.50;;;7.00;99.90;;;;;;5167179;28;20241;-68
2021/11/07 16:29:30;;;;;;;11.93;3.00;;;7.10;99.90;;;;;;5166870;28;20242;-69
2021/11/07 16:35:29;;;;;;;8.70;3.13;;;7.10;99.90;;;;;;5167156;28;20242;-67
2021/11/07 16:37:49;;;;;;;10.10;2.63;;;7.10;99.90;;;;;;5171751;28;20228;-67
2021/11/07 16:40:32;;;;;;;7.00;2.63;;;7.20;99.90;;;;;;5166859;28;20216;-68
2021/11/07 16:43:06;;;;;;;9.27;2.37;;;7.20;99.90;;;;;;5167024;28;20223;-72